createdAt,value
2018-07-15T00:00:58.464Z,0.00
2018-07-15T00:01:58.464Z,0.00
2018-07-15T00:02:58.461Z,0.00
2018-07-15T00:03:58.476Z,0.00
2018-07-15T00:04:58.475Z,0.00
2018-07-15T00:05:58.489Z,0.00
2018-07-15T00:06:58.484Z,0.00
2018-07-15T00:07:58.482Z,0.00
2018-07-15T00:08:58.480Z,0.00
2018-07-15T00:09:58.489Z,0.00
2018-07-15T00:10:58.489Z,0.00
2018-07-15T00:11:58.515Z,0.00
2018-07-15T00:12:58.506Z,0.00
2018-07-15T00:13:58.623Z,0.00
2018-07-15T00:14:59.126Z,0.00
2018-07-15T00:15:58.513Z,0.00
2018-07-15T00:16:58.514Z,0.00
2018-07-15T00:17:58.509Z,0.00
2018-07-15T00:18:58.521Z,0.00
2018-07-15T00:19:58.513Z,0.00
2018-07-15T00:20:58.515Z,0.00
2018-07-15T00:21:58.524Z,0.00
2018-07-15T00:22:58.533Z,0.00
2018-07-15T00:23:58.533Z,0.00
2018-07-15T00:24:58.530Z,0.00
2018-07-15T00:25:58.533Z,0.00
2018-07-15T00:26:58.563Z,0.00
2018-07-15T00:27:58.548Z,0.00
2018-07-15T00:28:58.537Z,0.00
2018-07-15T00:29:58.548Z,0.00
2018-07-15T00:30:58.562Z,0.00
2018-07-15T00:31:58.547Z,0.00
2018-07-15T00:32:58.555Z,0.00
2018-07-15T00:33:58.599Z,0.00
2018-07-15T00:34:59.139Z,0.00
2018-07-15T00:35:58.573Z,0.00
2018-07-15T00:36:58.572Z,0.00
2018-07-15T00:37:58.568Z,0.00
2018-07-15T00:38:58.594Z,0.00
2018-07-15T00:39:58.583Z,0.00
2018-07-15T00:40:58.572Z,0.00
2018-07-15T00:41:58.578Z,0.00
2018-07-15T00:42:58.590Z,0.00
2018-07-15T00:43:58.587Z,0.00
2018-07-15T00:44:58.591Z,0.00
2018-07-15T00:45:58.665Z,0.00
2018-07-15T00:46:58.618Z,0.00
2018-07-15T00:47:58.608Z,0.00
2018-07-15T00:48:58.604Z,0.00
2018-07-15T00:49:58.603Z,0.00
2018-07-15T00:50:58.611Z,0.00
2018-07-15T00:51:58.611Z,0.00
2018-07-15T00:52:58.608Z,0.00
2018-07-15T00:53:58.622Z,0.00
2018-07-15T00:54:58.630Z,0.00
2018-07-15T00:55:58.635Z,0.00
2018-07-15T00:56:58.620Z,0.00
2018-07-15T00:57:58.633Z,0.00
2018-07-15T00:58:58.640Z,0.00
2018-07-15T00:59:58.648Z,0.00
2018-07-15T01:00:58.641Z,0.00
2018-07-15T01:01:58.643Z,0.00
2018-07-15T01:02:58.634Z,0.00
2018-07-15T01:03:58.640Z,0.00
2018-07-15T01:04:58.651Z,0.00
2018-07-15T01:05:58.646Z,0.00
2018-07-15T01:06:58.676Z,0.00
2018-07-15T01:07:58.665Z,0.00
2018-07-15T01:08:58.671Z,0.00
2018-07-15T01:09:58.661Z,0.00
2018-07-15T01:10:58.666Z,0.00
2018-07-15T01:11:58.666Z,0.00
2018-07-15T01:12:58.660Z,0.00
2018-07-15T01:13:58.670Z,0.00
2018-07-15T01:14:58.673Z,0.00
2018-07-15T01:15:58.699Z,0.00
2018-07-15T01:16:58.678Z,0.00
2018-07-15T01:17:58.684Z,0.00
2018-07-15T01:18:58.688Z,0.00
2018-07-15T01:19:58.689Z,0.00
2018-07-15T01:20:58.699Z,0.00
2018-07-15T01:21:58.693Z,0.00
2018-07-15T01:22:58.692Z,0.00
2018-07-15T01:23:58.709Z,0.00
2018-07-15T01:24:58.694Z,0.00
2018-07-15T01:25:58.736Z,0.00
2018-07-15T01:26:58.712Z,0.00
2018-07-15T01:27:58.708Z,0.00
2018-07-15T01:28:58.719Z,0.00
2018-07-15T01:29:58.712Z,0.00
2018-07-15T01:30:58.720Z,0.00
2018-07-15T01:31:58.718Z,0.00
2018-07-15T01:32:58.746Z,0.00
2018-07-15T01:33:58.731Z,0.00
2018-07-15T01:34:58.728Z,0.00
2018-07-15T01:35:58.752Z,0.00
2018-07-15T01:36:58.731Z,0.00
2018-07-15T01:37:58.749Z,0.00
2018-07-15T01:38:58.749Z,0.00
2018-07-15T01:39:58.745Z,0.00
2018-07-15T01:40:58.758Z,0.00
2018-07-15T01:41:58.775Z,0.00
2018-07-15T01:42:58.774Z,0.00
2018-07-15T01:43:58.747Z,0.00
2018-07-15T01:44:58.775Z,0.00
2018-07-15T01:45:58.766Z,0.00
2018-07-15T01:46:58.757Z,0.00
2018-07-15T01:47:58.770Z,0.00
2018-07-15T01:48:58.786Z,0.00
2018-07-15T01:49:59.662Z,0.00
2018-07-15T01:50:58.774Z,0.00
2018-07-15T01:52:01.737Z,0.00
2018-07-15T01:52:58.772Z,0.00
2018-07-15T01:53:58.804Z,0.00
2018-07-15T01:54:58.795Z,0.00
2018-07-15T01:55:58.791Z,0.00
2018-07-15T01:56:58.793Z,0.00
2018-07-15T01:57:58.790Z,0.00
2018-07-15T01:58:58.799Z,0.00
2018-07-15T01:59:58.792Z,0.00
2018-07-15T02:00:58.811Z,0.00
2018-07-15T02:01:58.805Z,0.00
2018-07-15T02:02:58.877Z,0.00
2018-07-15T02:03:58.829Z,0.00
2018-07-15T02:04:58.804Z,0.00
2018-07-15T02:05:58.811Z,0.00
2018-07-15T02:06:58.829Z,0.00
2018-07-15T02:07:58.839Z,0.00
2018-07-15T02:08:58.825Z,0.00
2018-07-15T02:09:58.825Z,0.00
2018-07-15T02:10:58.822Z,0.00
2018-07-15T02:11:58.842Z,0.00
2018-07-15T02:12:58.839Z,0.00
2018-07-15T02:13:58.848Z,0.00
2018-07-15T02:14:58.854Z,0.00
2018-07-15T02:15:58.853Z,0.00
2018-07-15T02:17:00.742Z,0.00
2018-07-15T02:17:58.850Z,0.00
2018-07-15T02:18:58.858Z,0.00
2018-07-15T02:19:58.843Z,0.00
2018-07-15T02:20:58.845Z,0.00
2018-07-15T02:21:58.853Z,0.00
2018-07-15T02:22:58.853Z,0.00
2018-07-15T02:23:58.860Z,0.00
2018-07-15T02:24:58.864Z,0.00
2018-07-15T02:25:58.873Z,0.00
2018-07-15T02:26:58.874Z,0.00
2018-07-15T02:27:58.883Z,0.00
2018-07-15T02:28:58.880Z,0.00
2018-07-15T02:29:58.869Z,0.00
2018-07-15T02:30:58.885Z,0.00
2018-07-15T02:31:58.886Z,0.00
2018-07-15T02:32:58.888Z,0.00
2018-07-15T02:33:58.886Z,0.00
2018-07-15T02:34:58.892Z,0.00
2018-07-15T02:35:58.903Z,0.00
2018-07-15T02:36:58.914Z,0.00
2018-07-15T02:37:58.918Z,0.00
2018-07-15T02:38:58.921Z,0.00
2018-07-15T02:39:58.902Z,0.00
2018-07-15T02:40:58.917Z,0.00
2018-07-15T02:41:58.906Z,0.00
2018-07-15T02:42:58.915Z,0.00
2018-07-15T02:43:58.911Z,0.00
2018-07-15T02:44:58.945Z,0.00
2018-07-15T02:45:58.915Z,0.00
2018-07-15T02:46:58.937Z,0.00
2018-07-15T02:47:58.936Z,4.00
2018-07-15T02:48:58.941Z,4.00
2018-07-15T02:49:58.959Z,4.00
2018-07-15T02:50:58.939Z,0.00
2018-07-15T02:51:58.955Z,4.00
2018-07-15T02:52:58.958Z,4.00
2018-07-15T02:53:58.940Z,4.00
2018-07-15T02:54:58.955Z,4.00
2018-07-15T02:55:58.945Z,4.00
2018-07-15T02:56:58.947Z,4.00
2018-07-15T02:57:58.947Z,8.00
2018-07-15T02:58:58.957Z,4.00
2018-07-15T02:59:58.959Z,8.00
2018-07-15T03:00:58.953Z,8.00
2018-07-15T03:01:58.970Z,8.00
2018-07-15T03:02:58.955Z,8.00
2018-07-15T03:03:58.979Z,12.00
2018-07-15T03:04:58.994Z,12.00
2018-07-15T03:05:58.973Z,16.00
2018-07-15T03:06:59.002Z,16.00
2018-07-15T03:07:58.972Z,20.00
2018-07-15T03:08:58.981Z,20.00
2018-07-15T03:09:58.996Z,24.00
2018-07-15T03:15:43.947Z,44.00
2018-07-15T03:16:35.109Z,48.00
2018-07-15T03:17:35.035Z,56.00
2018-07-15T03:18:35.043Z,56.00
2018-07-15T03:19:35.055Z,64.00
2018-07-15T03:20:35.071Z,72.00
2018-07-15T03:21:35.038Z,76.00
2018-07-15T03:22:35.039Z,84.00
2018-07-15T03:23:35.068Z,88.00
2018-07-15T03:24:35.073Z,96.00
2018-07-15T03:25:35.501Z,108.00
2018-07-15T03:26:35.056Z,116.00
2018-07-15T03:27:35.064Z,120.00
2018-07-15T03:28:35.055Z,128.00
2018-07-15T03:29:35.080Z,144.00
2018-07-15T03:30:35.063Z,152.00
2018-07-15T03:31:35.065Z,164.00
2018-07-15T03:32:35.065Z,172.00
2018-07-15T03:33:35.080Z,184.00
2018-07-15T03:34:35.081Z,196.00
2018-07-15T03:35:35.084Z,204.00
2018-07-15T03:36:35.080Z,220.00
2018-07-15T03:37:35.086Z,232.00
2018-07-15T03:38:36.008Z,248.00
2018-07-15T03:39:35.084Z,260.00
2018-07-15T03:40:35.096Z,272.00
2018-07-15T03:41:35.088Z,284.00
2018-07-15T03:42:35.093Z,304.00
2018-07-15T03:43:35.135Z,320.00
2018-07-15T03:44:35.105Z,332.00
2018-07-15T03:45:35.099Z,348.00
2018-07-15T03:46:35.111Z,364.00
2018-07-15T03:47:35.112Z,380.00
2018-07-15T03:48:35.118Z,396.00
2018-07-15T03:49:35.126Z,412.00
2018-07-15T03:50:35.116Z,432.00
2018-07-15T03:51:35.137Z,444.00
2018-07-15T03:52:35.128Z,464.00
2018-07-15T03:53:35.150Z,480.00
2018-07-15T03:54:35.154Z,500.00
2018-07-15T03:55:35.144Z,516.00
2018-07-15T03:56:35.142Z,528.00
2018-07-15T03:57:35.141Z,548.00
2018-07-15T03:58:35.147Z,564.00
2018-07-15T03:59:35.134Z,584.00
2018-07-15T04:00:35.154Z,604.00
2018-07-15T04:01:35.146Z,616.00
2018-07-15T04:02:35.149Z,636.00
2018-07-15T04:03:35.155Z,652.00
2018-07-15T04:04:35.150Z,668.00
2018-07-15T04:05:35.147Z,692.00
2018-07-15T04:06:35.168Z,708.00
2018-07-15T04:07:35.202Z,724.00
2018-07-15T04:08:35.232Z,744.00
2018-07-15T04:09:35.155Z,760.00
2018-07-15T04:10:35.162Z,780.00
2018-07-15T04:11:35.179Z,796.00
2018-07-15T04:12:35.223Z,812.00
2018-07-15T04:13:35.203Z,828.00
2018-07-15T04:14:35.174Z,844.00
2018-07-15T04:15:35.190Z,864.00
2018-07-15T04:16:35.200Z,880.00
2018-07-15T04:17:35.209Z,896.00
2018-07-15T04:18:35.216Z,916.00
2018-07-15T04:19:35.195Z,928.00
2018-07-15T04:20:35.205Z,944.00
2018-07-15T04:21:35.228Z,964.00
2018-07-15T04:22:35.190Z,976.00
2018-07-15T04:23:35.203Z,992.00
2018-07-15T04:24:35.215Z,1012.00
2018-07-15T04:25:35.209Z,1028.00
2018-07-15T04:26:35.206Z,1044.00
2018-07-15T04:27:35.205Z,1060.00
2018-07-15T04:28:35.229Z,1076.00
2018-07-15T04:29:35.212Z,1092.00
2018-07-15T04:30:35.220Z,1108.00
2018-07-15T04:31:35.213Z,1128.00
2018-07-15T04:32:36.019Z,1140.00
2018-07-15T04:33:35.226Z,1156.00
2018-07-15T04:34:35.232Z,1172.00
2018-07-15T04:35:35.235Z,1188.00
2018-07-15T04:36:35.231Z,1200.00
2018-07-15T04:37:35.237Z,1216.00
2018-07-15T04:38:35.275Z,1232.00
2018-07-15T04:39:35.248Z,1248.00
2018-07-15T04:40:35.246Z,1264.00
2018-07-15T04:41:35.240Z,1280.00
2018-07-15T04:42:35.256Z,1296.00
2018-07-15T04:43:35.253Z,1312.00
2018-07-15T04:44:35.250Z,1328.00
2018-07-15T04:45:35.273Z,1344.00
2018-07-15T04:46:35.261Z,1364.00
2018-07-15T04:47:35.256Z,1376.00
2018-07-15T04:48:35.261Z,1392.00
2018-07-15T04:49:35.281Z,1412.00
2018-07-15T04:50:35.266Z,1428.00
2018-07-15T04:51:35.270Z,1448.00
2018-07-15T04:52:35.286Z,1468.00
2018-07-15T04:53:35.298Z,1484.00
2018-07-15T04:54:35.276Z,1496.00
2018-07-15T04:55:35.294Z,1512.00
2018-07-15T04:56:35.292Z,1528.00
2018-07-15T04:57:35.285Z,1540.00
2018-07-15T04:58:35.302Z,1556.00
2018-07-15T04:59:35.285Z,1576.00
2018-07-15T05:00:35.292Z,1608.00
2018-07-15T05:01:35.298Z,1636.00
2018-07-15T05:02:35.298Z,1680.00
2018-07-15T05:03:35.319Z,1720.00
2018-07-15T05:04:35.294Z,1752.00
2018-07-15T05:05:35.305Z,1804.00
2018-07-15T05:06:35.335Z,1872.00
2018-07-15T05:07:35.313Z,1952.00
2018-07-15T05:08:36.032Z,2008.00
2018-07-15T05:09:35.340Z,2072.00
2018-07-15T05:10:35.354Z,2140.00
2018-07-15T05:11:35.337Z,2200.00
2018-07-15T05:12:35.358Z,2264.00
2018-07-15T05:13:35.325Z,2328.00
2018-07-15T05:14:35.320Z,2372.00
2018-07-15T05:15:35.327Z,2432.00
2018-07-15T05:16:35.369Z,2488.00
2018-07-15T05:17:35.336Z,2532.00
2018-07-15T05:18:35.337Z,2576.00
2018-07-15T05:19:35.346Z,2624.00
2018-07-15T05:20:35.357Z,2988.00
2018-07-15T05:21:35.380Z,4052.00
2018-07-15T05:22:35.374Z,5180.00
2018-07-15T05:23:35.348Z,5720.00
2018-07-15T05:24:35.357Z,5804.00
2018-07-15T05:25:35.359Z,5884.00
2018-07-15T05:26:36.041Z,5792.00
2018-07-15T05:27:35.355Z,5360.00
2018-07-15T05:28:35.371Z,4444.00
2018-07-15T05:29:35.374Z,3704.00
2018-07-15T05:30:35.364Z,4072.00
2018-07-15T05:31:35.403Z,5176.00
2018-07-15T05:32:35.377Z,6008.00
2018-07-15T05:33:35.379Z,6288.00
2018-07-15T05:34:35.396Z,6376.00
2018-07-15T05:35:35.399Z,6464.00
2018-07-15T05:36:35.399Z,6520.00
2018-07-15T05:37:35.402Z,6592.00
2018-07-15T05:38:35.393Z,6656.00
2018-07-15T05:39:35.424Z,6732.00
2018-07-15T05:40:35.418Z,6816.00
2018-07-15T05:41:35.406Z,6896.00
2018-07-15T05:42:35.424Z,6996.00
2018-07-15T05:43:35.456Z,7096.00
2018-07-15T05:44:35.415Z,7180.00
2018-07-15T05:45:35.411Z,7280.00
2018-07-15T05:46:35.432Z,7328.00
2018-07-15T05:47:35.428Z,7424.00
2018-07-15T05:48:35.433Z,7440.00
2018-07-15T05:49:35.437Z,7412.00
2018-07-15T05:50:35.473Z,7448.00
2018-07-15T05:51:35.452Z,7548.00
2018-07-15T05:52:35.461Z,7728.00
2018-07-15T05:53:35.473Z,7840.00
2018-07-15T05:54:35.469Z,7920.00
2018-07-15T05:55:35.480Z,7992.00
2018-07-15T05:56:35.508Z,8088.00
2018-07-15T05:57:35.497Z,8168.00
2018-07-15T05:58:35.501Z,8252.00
2018-07-15T05:59:35.525Z,8332.00
2018-07-15T06:00:35.502Z,8400.00
2018-07-15T06:01:35.509Z,8448.00
2018-07-15T06:02:35.568Z,8532.00
2018-07-15T06:03:35.588Z,8572.00
2018-07-15T06:04:35.546Z,8648.00
2018-07-15T06:05:35.543Z,8736.00
2018-07-15T06:06:35.549Z,8816.00
2018-07-15T06:07:35.607Z,8904.00
2018-07-15T06:08:35.559Z,8976.00
2018-07-15T06:09:36.061Z,9048.00
2018-07-15T06:10:35.614Z,9124.00
2018-07-15T06:11:35.583Z,9204.00
2018-07-15T06:12:35.608Z,9172.00
2018-07-15T06:13:35.594Z,8772.00
2018-07-15T06:14:35.611Z,7308.00
2018-07-15T06:15:35.619Z,5360.00
2018-07-15T06:16:35.628Z,5116.00
2018-07-15T06:17:35.647Z,6736.00
2018-07-15T06:18:35.632Z,8720.00
2018-07-15T06:19:35.643Z,9600.00
2018-07-15T06:20:35.655Z,9928.00
2018-07-15T06:21:35.684Z,10128.00
2018-07-15T06:22:35.705Z,10244.00
2018-07-15T06:23:35.715Z,10356.00
2018-07-15T06:24:35.684Z,10448.00
2018-07-15T06:25:35.701Z,10524.00
2018-07-15T06:26:35.729Z,10620.00
2018-07-15T06:27:35.713Z,10696.00
2018-07-15T06:28:35.730Z,10824.00
2018-07-15T06:29:35.727Z,10896.00
2018-07-15T06:30:35.763Z,10956.00
2018-07-15T06:31:35.772Z,11068.00
2018-07-15T06:32:35.760Z,11212.00
2018-07-15T06:33:35.764Z,11352.00
2018-07-15T06:34:35.797Z,11416.00
2018-07-15T06:35:35.784Z,11516.00
2018-07-15T06:36:35.798Z,11684.00
2018-07-15T06:37:35.815Z,11796.00
2018-07-15T06:38:35.813Z,11896.00
2018-07-15T06:39:35.842Z,12044.00
2018-07-15T06:40:35.835Z,12156.00
2018-07-15T06:41:35.871Z,12272.00
2018-07-15T06:42:35.863Z,12452.00
2018-07-15T06:43:35.869Z,12592.00
2018-07-15T06:44:35.883Z,12664.00
2018-07-15T06:45:35.891Z,12764.00
2018-07-15T06:46:35.897Z,12852.00
2018-07-15T06:47:35.925Z,12932.00
2018-07-15T06:48:37.673Z,12996.00
2018-07-15T06:49:35.948Z,13024.00
2018-07-15T06:50:35.943Z,13208.00
2018-07-15T06:51:35.952Z,13348.00
2018-07-15T06:52:35.975Z,13612.00
2018-07-15T06:53:35.984Z,13748.00
2018-07-15T06:54:35.989Z,13960.00
2018-07-15T06:55:36.028Z,14196.00
2018-07-15T06:56:36.018Z,14328.00
2018-07-15T06:57:36.041Z,14404.00
2018-07-15T06:58:36.035Z,14536.00
2018-07-15T06:59:36.060Z,14604.00
2018-07-15T07:00:36.067Z,14628.00
2018-07-15T07:24:13.919Z,25696.00
2018-07-15T07:24:44.324Z,27264.00
2018-07-15T07:25:44.346Z,29376.00
2018-07-15T07:26:44.361Z,32288.00
2018-07-15T07:27:44.428Z,35872.00
2018-07-15T07:28:44.685Z,39904.00
2018-07-15T07:29:44.397Z,44512.00
2018-07-15T07:30:44.447Z,50560.00
2018-07-15T07:31:44.438Z,61152.00
2018-07-15T07:32:44.464Z,78432.00
2018-07-15T07:33:44.476Z,93600.00
2018-07-15T07:34:44.511Z,102240.00
2018-07-15T07:35:44.477Z,108032.00
2018-07-15T07:36:44.513Z,115264.00
2018-07-15T07:37:44.545Z,124480.00
2018-07-15T07:38:44.584Z,139072.00
2018-07-15T07:39:44.542Z,150112.00
2018-07-15T07:40:44.575Z,154432.00
2018-07-15T07:41:44.592Z,146112.00
2018-07-15T07:42:44.593Z,128832.00
2018-07-15T07:43:44.604Z,120384.00
2018-07-15T07:44:44.617Z,118080.00
2018-07-15T07:45:44.672Z,116576.00
2018-07-15T07:46:44.653Z,109888.00
2018-07-15T07:47:44.673Z,103168.00
2018-07-15T07:48:44.674Z,97888.00
2018-07-15T07:49:44.691Z,92736.00
2018-07-15T07:50:44.737Z,83712.00
2018-07-15T07:51:44.736Z,77696.00
2018-07-15T07:52:44.753Z,72320.00
2018-07-15T07:53:44.746Z,69952.00
2018-07-15T07:54:44.771Z,69120.00
2018-07-15T07:55:44.784Z,71552.00
2018-07-15T07:56:44.830Z,73696.00
2018-07-15T07:57:44.823Z,68192.00
2018-07-15T07:58:44.845Z,64512.00
2018-07-15T07:59:45.314Z,63840.00
2018-07-15T08:00:44.885Z,63072.00
2018-07-15T08:01:44.880Z,65888.00
2018-07-15T08:02:44.895Z,69920.00
2018-07-15T08:03:44.937Z,69216.00
2018-07-15T08:04:44.922Z,64992.00
2018-07-15T08:05:44.941Z,60544.00
2018-07-15T08:06:44.988Z,56224.00
2018-07-15T08:07:45.062Z,58080.00
2018-07-15T08:08:44.993Z,59648.00
2018-07-15T08:09:45.012Z,60032.00
2018-07-15T08:10:45.039Z,60544.00
2018-07-15T08:11:46.919Z,60224.00
2018-07-15T08:12:45.063Z,57632.00
2018-07-15T08:13:45.079Z,55136.00
2018-07-15T08:14:45.148Z,56736.00
2018-07-15T08:15:45.113Z,57728.00
2018-07-15T08:16:45.155Z,55456.00
2018-07-15T08:17:45.165Z,54304.00
2018-07-15T08:18:45.191Z,53184.00
2018-07-15T08:19:45.223Z,51360.00
2018-07-15T08:20:45.213Z,52672.00
2018-07-15T08:21:45.224Z,54944.00
2018-07-15T08:22:45.250Z,56576.00
2018-07-15T08:23:45.268Z,58496.00
2018-07-15T08:24:46.895Z,58560.00
2018-07-15T08:25:45.276Z,59040.00
2018-07-15T08:26:45.296Z,59296.00
2018-07-15T08:27:45.328Z,55968.00
2018-07-15T08:28:45.331Z,55168.00
2018-07-15T08:29:45.360Z,56320.00
2018-07-15T08:30:45.370Z,58880.00
2018-07-15T08:31:45.387Z,59232.00
2018-07-15T08:32:45.430Z,60160.00
2018-07-15T08:33:45.427Z,64160.00
2018-07-15T08:34:45.509Z,63840.00
2018-07-15T08:35:45.466Z,63456.00
2018-07-15T08:36:45.500Z,63744.00
2018-07-15T08:37:45.517Z,65760.00
2018-07-15T08:38:45.517Z,73408.00
2018-07-15T08:39:45.559Z,82528.00
2018-07-15T08:40:45.571Z,79808.00
2018-07-15T08:41:45.581Z,77248.00
2018-07-15T08:42:45.613Z,84160.00
2018-07-15T08:43:45.639Z,92256.00
2018-07-15T08:44:45.633Z,90880.00
2018-07-15T08:45:45.679Z,81984.00
2018-07-15T08:46:45.678Z,71104.00
2018-07-15T08:47:45.714Z,62976.00
2018-07-15T08:48:45.712Z,58176.00
2018-07-15T08:49:45.738Z,56480.00
2018-07-15T08:50:45.789Z,55840.00
2018-07-15T08:51:45.881Z,55840.00
2018-07-15T08:52:45.791Z,55648.00
2018-07-15T08:53:45.817Z,55872.00
2018-07-15T08:54:45.931Z,56256.00
2018-07-15T08:55:45.852Z,55840.00
2018-07-15T08:56:45.871Z,55968.00
2018-07-15T08:57:45.906Z,56032.00
2018-07-15T08:58:45.945Z,56000.00
2018-07-15T08:59:45.953Z,55648.00
2018-07-15T09:00:45.965Z,55904.00
2018-07-15T09:01:45.994Z,55968.00
2018-07-15T09:02:45.986Z,55904.00
2018-07-15T09:03:46.015Z,55680.00
2018-07-15T09:04:46.023Z,55680.00
2018-07-15T09:05:46.053Z,55008.00
2018-07-15T09:06:46.132Z,54816.00
2018-07-15T09:07:46.122Z,54816.00
2018-07-15T09:08:46.111Z,54080.00
2018-07-15T09:09:46.132Z,52992.00
2018-07-15T09:10:46.149Z,52384.00
2018-07-15T09:11:46.175Z,52064.00
2018-07-15T09:12:48.008Z,51168.00
2018-07-15T09:13:46.860Z,51008.00
2018-07-15T09:14:46.261Z,50592.00
2018-07-15T09:15:46.256Z,49888.00
2018-07-15T09:16:46.266Z,49280.00
2018-07-15T09:17:46.291Z,48864.00
2018-07-15T09:18:46.329Z,48352.00
2018-07-15T09:19:46.381Z,47968.00
2018-07-15T09:20:46.350Z,47680.00
2018-07-15T09:21:46.456Z,48192.00
2018-07-15T09:22:46.422Z,48960.00
2018-07-15T09:23:46.422Z,49824.00
2018-07-15T09:24:46.469Z,52800.00
2018-07-15T09:25:46.461Z,57088.00
2018-07-15T09:26:46.478Z,62112.00
2018-07-15T09:27:46.513Z,67040.00
2018-07-15T09:28:46.511Z,66720.00
2018-07-15T09:29:46.594Z,68960.00
2018-07-15T09:30:46.570Z,75392.00
2018-07-15T09:31:46.589Z,72448.00
2018-07-15T09:32:46.642Z,68096.00
2018-07-15T09:33:46.635Z,72672.00
2018-07-15T09:34:46.653Z,72416.00
2018-07-15T09:35:46.683Z,74752.00
2018-07-15T09:36:46.731Z,81056.00
2018-07-15T09:37:46.719Z,82080.00
2018-07-15T09:38:46.764Z,84672.00
2018-07-15T09:39:46.766Z,88960.00
2018-07-15T09:40:46.830Z,95584.00
2018-07-15T09:41:46.822Z,114176.00
2018-07-15T09:42:46.837Z,125376.00
2018-07-15T09:43:46.852Z,109440.00
2018-07-15T09:44:46.867Z,105664.00
2018-07-15T09:45:46.888Z,106368.00
2018-07-15T09:46:48.447Z,102368.00
2018-07-15T09:47:46.971Z,111008.00
2018-07-15T09:48:47.003Z,115328.00
2018-07-15T09:49:46.990Z,116576.00
2018-07-15T09:50:47.037Z,122272.00
2018-07-15T09:51:47.046Z,122976.00
2018-07-15T09:52:47.056Z,119488.00
2018-07-15T09:53:47.184Z,120064.00
2018-07-15T09:54:47.087Z,123296.00
2018-07-15T09:55:47.170Z,123264.00
2018-07-15T09:56:47.146Z,124608.00
2018-07-15T09:57:47.175Z,119392.00
2018-07-15T09:58:47.230Z,118176.00
2018-07-15T09:59:47.212Z,117664.00
2018-07-15T10:00:47.231Z,118944.00
2018-07-15T10:01:47.253Z,116672.00
2018-07-15T10:02:47.892Z,115968.00
2018-07-15T10:03:47.294Z,117280.00
2018-07-15T10:04:47.350Z,115232.00
2018-07-15T10:05:47.355Z,114528.00
2018-07-15T10:06:47.376Z,115520.00
2018-07-15T10:07:47.396Z,114720.00
2018-07-15T10:08:47.437Z,108608.00
2018-07-15T10:09:47.466Z,109568.00
2018-07-15T10:10:47.492Z,115488.00
2018-07-15T10:11:47.487Z,116448.00
2018-07-15T10:12:47.551Z,112000.00
2018-07-15T10:13:47.549Z,109216.00
2018-07-15T10:14:47.618Z,110528.00
2018-07-15T10:15:47.579Z,108224.00
2018-07-15T10:16:47.622Z,100640.00
2018-07-15T10:17:47.641Z,89280.00
2018-07-15T10:18:47.653Z,88576.00
2018-07-15T10:19:47.718Z,88416.00
2018-07-15T10:20:47.747Z,82592.00
2018-07-15T10:21:47.774Z,81280.00
2018-07-15T10:22:47.781Z,85696.00
2018-07-15T10:23:47.779Z,88736.00
2018-07-15T10:24:47.800Z,86976.00
2018-07-15T10:25:47.815Z,94016.00
2018-07-15T10:26:47.843Z,95264.00
2018-07-15T10:27:47.885Z,91232.00
2018-07-15T10:28:47.889Z,92544.00
2018-07-15T10:29:47.982Z,92448.00
2018-07-15T10:30:47.964Z,93664.00
2018-07-15T10:31:48.027Z,96160.00
2018-07-15T10:32:47.996Z,98208.00
2018-07-15T10:33:48.004Z,98816.00
2018-07-15T10:34:48.013Z,99136.00
2018-07-15T10:35:48.042Z,101664.00
2018-07-15T10:36:48.908Z,103712.00
2018-07-15T10:37:48.103Z,103232.00
2018-07-15T10:38:48.359Z,101856.00
2018-07-15T10:39:48.174Z,99232.00
2018-07-15T10:40:48.186Z,96864.00
2018-07-15T10:41:48.166Z,89792.00
2018-07-15T10:42:48.180Z,96448.00
2018-07-15T10:43:48.211Z,103296.00
2018-07-15T10:44:48.218Z,102784.00
2018-07-15T10:45:48.256Z,93728.00
2018-07-15T10:46:49.981Z,47808.00
2018-07-15T10:47:48.334Z,9384.00
2018-07-15T10:48:48.352Z,4600.00
2018-07-15T10:49:48.318Z,3024.00
2018-07-15T10:50:48.338Z,2856.00
2018-07-15T10:51:48.369Z,2832.00
2018-07-15T10:52:48.427Z,2808.00
2018-07-15T10:53:48.388Z,2780.00
2018-07-15T10:54:48.415Z,2748.00
2018-07-15T10:55:48.425Z,2720.00
2018-07-15T10:56:48.448Z,2712.00
2018-07-15T10:57:48.465Z,2700.00
2018-07-15T10:58:49.421Z,2684.00
2018-07-15T10:59:48.525Z,2668.00
2018-07-15T11:00:48.513Z,2656.00
2018-07-15T11:01:48.537Z,2652.00
2018-07-15T11:02:48.535Z,2656.00
2018-07-15T11:03:48.570Z,2644.00
2018-07-15T11:04:48.570Z,2640.00
2018-07-15T11:05:48.579Z,2640.00
2018-07-15T11:06:48.636Z,2636.00
2018-07-15T11:07:48.600Z,2632.00
2018-07-15T11:08:49.428Z,2624.00
2018-07-15T11:09:48.642Z,2616.00
2018-07-15T11:10:48.665Z,2616.00
2018-07-15T11:11:48.652Z,2612.00
2018-07-15T11:12:48.661Z,2604.00
2018-07-15T11:13:48.688Z,2612.00
2018-07-15T11:14:48.688Z,2608.00
2018-07-15T11:15:48.698Z,2600.00
2018-07-15T11:16:48.706Z,2588.00
2018-07-15T11:17:48.718Z,2580.00
2018-07-15T11:18:48.732Z,2568.00
2018-07-15T11:19:48.741Z,2564.00
2018-07-15T11:20:48.773Z,2564.00
2018-07-15T11:21:48.781Z,2560.00
2018-07-15T11:22:48.782Z,2560.00
2018-07-15T11:23:48.787Z,2552.00
2018-07-15T11:24:48.794Z,2528.00
2018-07-15T11:25:48.800Z,2516.00
2018-07-15T11:26:48.823Z,2508.00
2018-07-15T11:27:48.824Z,2496.00
2018-07-15T11:28:48.836Z,2484.00
2018-07-15T11:29:48.844Z,2472.00
2018-07-15T11:30:48.930Z,2456.00
2018-07-15T11:31:48.874Z,2452.00
2018-07-15T11:32:48.875Z,2448.00
2018-07-15T11:33:48.883Z,2436.00
2018-07-15T11:34:48.894Z,2432.00
2018-07-15T11:35:48.900Z,2424.00
2018-07-15T11:36:48.919Z,2416.00
2018-07-15T11:37:48.922Z,2412.00
2018-07-15T11:38:48.928Z,2416.00
2018-07-15T11:39:48.946Z,2408.00
2018-07-15T11:40:48.961Z,2400.00
2018-07-15T11:41:48.961Z,2388.00
2018-07-15T11:42:49.024Z,2380.00
2018-07-15T11:43:48.998Z,2372.00
2018-07-15T11:44:49.008Z,2368.00
2018-07-15T11:45:48.994Z,2368.00
2018-07-15T11:46:49.035Z,2368.00
2018-07-15T11:47:49.017Z,2360.00
2018-07-15T11:48:49.024Z,2348.00
2018-07-15T11:49:49.038Z,2344.00
2018-07-15T11:50:49.031Z,2332.00
2018-07-15T11:51:49.044Z,2316.00
2018-07-15T11:52:49.059Z,2316.00
2018-07-15T11:53:49.065Z,2312.00
2018-07-15T11:54:49.070Z,2308.00
2018-07-15T11:55:49.080Z,2304.00
2018-07-15T11:56:49.163Z,2300.00
2018-07-15T11:57:49.101Z,2284.00
2018-07-15T11:58:49.103Z,2272.00
2018-07-15T11:59:49.111Z,2252.00
2018-07-15T12:00:49.122Z,2232.00
2018-07-15T12:01:49.179Z,2224.00
2018-07-15T12:02:49.158Z,2220.00
2018-07-15T12:03:49.146Z,2212.00
2018-07-15T12:04:49.155Z,2208.00
2018-07-15T12:05:49.161Z,2208.00
2018-07-15T12:06:49.177Z,2208.00
2018-07-15T12:07:49.189Z,2208.00
2018-07-15T12:08:49.202Z,2208.00
2018-07-15T12:09:51.075Z,2192.00
2018-07-15T12:10:49.207Z,2180.00
2018-07-15T12:11:49.231Z,2172.00
2018-07-15T12:12:49.226Z,2160.00
2018-07-15T12:13:49.256Z,2152.00
2018-07-15T12:14:49.265Z,2140.00
2018-07-15T12:15:49.279Z,2140.00
2018-07-15T12:16:49.255Z,2124.00
2018-07-15T12:17:49.262Z,2116.00
2018-07-15T12:18:49.274Z,2112.00
2018-07-15T12:19:49.355Z,2104.00
2018-07-15T12:20:49.314Z,2096.00
2018-07-15T12:21:49.319Z,2084.00
2018-07-15T12:22:49.321Z,2072.00
2018-07-15T12:23:49.324Z,2064.00
2018-07-15T12:24:49.347Z,2052.00
2018-07-15T12:25:49.325Z,2040.00
2018-07-15T12:26:49.336Z,2032.00
2018-07-15T12:27:49.362Z,2028.00
2018-07-15T12:28:49.365Z,2028.00
2018-07-15T12:29:49.420Z,2020.00
2018-07-15T12:30:49.368Z,2012.00
2018-07-15T12:31:49.383Z,2008.00
2018-07-15T12:32:49.406Z,2000.00
2018-07-15T12:33:49.402Z,1996.00
2018-07-15T12:34:49.407Z,1988.00
2018-07-15T12:35:49.426Z,1984.00
2018-07-15T12:36:49.413Z,1972.00
2018-07-15T12:37:49.451Z,1964.00
2018-07-15T12:38:49.449Z,1960.00
2018-07-15T12:39:49.444Z,1948.00
2018-07-15T12:40:49.441Z,1940.00
2018-07-15T12:41:49.485Z,1940.00
2018-07-15T12:42:49.468Z,1944.00
2018-07-15T12:43:49.484Z,1920.00